Ivan Poddubny — UDVP — position and weather

sailwx.info

Track history (hours):
 
Tides and Currents Weather Stations Pressure Air Temp Water Temp Dewpoint Dewpoint Depression Visibility Wind Speed Wind Dir Waves Ship Positions

Ivan Poddubny

Last reported at 2018-Jul-19 14:00 UTC. Time now 2018-Jul-20 01:04 UTC.
Position N 45°10' E 036°33'.

Length 109 m; draft 4.6 m.

Type: Ship. MMSI: 273358190.

Date/timePositionNaut miles runAvg speedWind from/ knotsBaromVisibWave heightAir tempDewpointWater temp
2018-Jul-19 14:00N 45°10' E 036°33'0 0.2
2018-Jul-19 12:26N 45°10' E 036°32'0 0.0
2018-Jul-19 09:38N 45°10' E 036°32'0 0.0
2018-Jul-19 09:11N 45°10' E 036°32'0 0.0
2018-Jul-19 02:47N 45°10' E 036°32'0 0.0
2018-Jul-19 02:20N 45°10' E 036°32'0 0.0
2018-Jul-18 06:17N 45°10' E 036°32'0 0.0
2018-Jul-18 05:59N 45°10' E 036°32'0 0.0
2018-Jul-18 05:29N 45°10' E 036°32'0 0.0
2018-Jul-18 04:59N 45°10' E 036°32'0 0.0
2018-Jul-18 04:29N 45°10' E 036°32'0 0.0
2018-Jul-16 16:25N 45°10' E 036°32'0 0.0
2018-Jul-16 15:07N 45°10' E 036°32'0 0.0
2018-Jul-16 12:31N 45°10' E 036°32'0 0.1
2018-Jul-16 12:28N 45°10' E 036°32'0 0.0
2018-Jul-15 13:55N 45°10' E 036°32'0 0.1
2018-Jul-15 12:40N 45°10' E 036°32'0 0.0
2018-Jul-15 12:04N 45°10' E 036°32'0 0.1
2018-Jul-15 11:58N 45°10' E 036°32'0 0.0
2018-Jul-15 11:01N 45°10' E 036°32'0 0.1
2018-Jul-15 10:55N 45°10' E 036°32'0 0.0
2018-Jul-15 10:28N 45°10' E 036°32'0 0.0
2018-Jul-15 09:58N 45°10' E 036°32'0 0.0
2018-Jul-15 09:28N 45°10' E 036°32'0 0.0
2018-Jul-15 08:58N 45°10' E 036°32'0 0.0
2018-Jul-15 08:25N 45°10' E 036°32'0 0.0
2018-Jul-15 04:19N 45°10' E 036°32'55 4.2
2018-Jul-14 15:15N 44°35' E 037°32'3 9.8
2018-Jul-14 14:58N 44°35' E 037°36'9 8.9
2018-Jul-14 14:00N 44°37' E 037°48'4 8.5
2018-Jul-14 13:30N 44°41' E 037°51'1 1.4
2018-Jul-14 13:00N 44°41' E 037°52'0 0.1
2018-Jul-14 12:30N 44°41' E 037°52'0 0.0
2018-Jul-14 12:00N 44°41' E 037°52'0 0.2
2018-Jul-14 11:30N 44°41' E 037°52'0 0.1
2018-Jul-14 11:00N 44°41' E 037°52'0 0.2
2018-Jul-14 10:30N 44°41' E 037°52'0 0.2
2018-Jul-14 10:00N 44°41' E 037°52'0 0.1
2018-Jul-14 09:30N 44°41' E 037°52'0 0.0
2018-Jul-14 09:00N 44°41' E 037°52'0 0.0
2018-Jul-14 08:30N 44°41' E 037°52'0 0.0
2018-Jul-14 08:00N 44°41' E 037°52'0 0.1
2018-Jul-14 07:30N 44°41' E 037°52'0 0.1
2018-Jul-14 07:00N 44°41' E 037°52'0 0.1
2018-Jul-14 06:30N 44°41' E 037°52'0 0.0
2018-Jul-14 06:00N 44°41' E 037°52'0 0.2
2018-Jul-14 05:30N 44°41' E 037°52'1 2.8
2018-Jul-14 05:00N 44°40' E 037°51'2 4.7
2018-Jul-14 04:30N 44°38' E 037°52'2 3.3
2018-Jul-14 04:00N 44°36' E 037°51'3 6.5
2018-Jul-14 03:31N 44°35' E 037°47'3 6.5
2018-Jul-14 03:00N 44°35' E 037°42'3 6.4
2018-Jul-14 02:31N 44°35' E 037°38'3 6.6
2018-Jul-14 02:00N 44°35' E 037°33'3 6.3
2018-Jul-14 01:31N 44°37' E 037°29'58 8.0
2018-Jul-13 18:14N 45°20' E 036°34'210.1
2018-Jul-13 18:00N 45°21' E 036°37'3 6.6
2018-Jul-13 17:31N 45°22' E 036°41'1 1.0
2018-Jul-13 16:58N 45°22' E 036°42'0 0.0
2018-Jul-13 16:25N 45°22' E 036°42'0 0.0
2018-Jul-13 15:58N 45°22' E 036°42'0 0.0
2018-Jul-13 15:28N 45°22' E 036°42'0 0.0
2018-Jul-13 14:58N 45°22' E 036°42'0 0.0
2018-Jul-13 13:58N 45°22' E 036°42'0 0.0
2018-Jul-13 13:28N 45°22' E 036°42'0 0.0
2018-Jul-13 12:58N 45°22' E 036°42'0 0.0
2018-Jul-13 12:28N 45°22' E 036°42'0 0.0
2018-Jul-13 11:58N 45°22' E 036°42'0 0.0
2018-Jul-13 11:28N 45°22' E 036°42'0 0.0
2018-Jul-13 10:55N 45°22' E 036°42'0 0.0
2018-Jul-13 10:28N 45°22' E 036°42'0 0.0
2018-Jul-13 09:58N 45°22' E 036°42'0 0.0
2018-Jul-13 09:28N 45°22' E 036°42'0 0.0
2018-Jul-13 08:58N 45°22' E 036°42'0 0.0
2018-Jul-13 08:28N 45°22' E 036°42'0 0.0
2018-Jul-13 07:58N 45°22' E 036°42'0 0.0
2018-Jul-13 07:28N 45°22' E 036°42'0 0.0
2018-Jul-13 06:58N 45°22' E 036°42'0 0.0
2018-Jul-13 06:28N 45°22' E 036°42'0 0.0
2018-Jul-13 05:52N 45°22' E 036°42'0 0.0
2018-Jul-13 05:25N 45°22' E 036°42'0 0.0
2018-Jul-13 04:58N 45°22' E 036°42'0 0.0
2018-Jul-13 04:28N 45°22' E 036°42'0 0.1
2018-Jul-13 03:58N 45°22' E 036°42'0 0.0
2018-Jul-13 03:28N 45°22' E 036°42'0 0.2
2018-Jul-13 02:58N 45°22' E 036°42'0 0.1
2018-Jul-13 02:28N 45°22' E 036°42'0 0.0
2018-Jul-13 01:58N 45°22' E 036°42'0 0.0
2018-Jul-13 01:28N 45°22' E 036°42'0 0.0
2018-Jul-13 00:55N 45°22' E 036°42'0 0.1
2018-Jul-13 00:28N 45°22' E 036°42'0 0.1
2018-Jul-12 23:58N 45°22' E 036°42'0 0.0
2018-Jul-12 23:28N 45°22' E 036°42'0 0.0
2018-Jul-12 22:58N 45°22' E 036°42'0 0.0
2018-Jul-12 22:28N 45°22' E 036°42'0 0.0
2018-Jul-12 21:58N 45°22' E 036°42'0 0.1
2018-Jul-12 21:28N 45°22' E 036°42'1 1.9
2018-Jul-12 20:58N 45°22' E 036°40'4 8.4
2018-Jul-12 20:30N 45°20' E 036°35'10 2.1
2018-Jul-12 15:47N 45°11' E 036°29'2 2.2
2018-Jul-12 14:42N 45°09' E 036°31'2 5.2
2018-Jul-12 14:23N 45°08' E 036°33'0 0.4
2018-Jul-12 13:59N 45°08' E 036°33'0 0.0
2018-Jul-12 05:26N 45°08' E 036°33'0 0.0
2018-Jul-12 04:57N 45°08' E 036°33'0 0.0
2018-Jul-12 04:17N 45°08' E 036°33'0 0.0
2018-Jul-12 03:50N 45°08' E 036°33'0 0.1
2018-Jul-12 03:08N 45°08' E 036°32'0 0.3
2018-Jul-12 03:00N 45°08' E 036°33'2 2.8
2018-Jul-12 02:28N 45°10' E 036°32'1 0.7
2018-Jul-12 00:26N 45°11' E 036°33'0 0.0
2018-Jul-11 20:53N 45°11' E 036°33'0 0.0
2018-Jul-11 11:12N 45°11' E 036°33'1 0.1
2018-Jul-11 05:30N 45°10' E 036°33'0 0.1
2018-Jul-11 04:40N 45°10' E 036°33'0 0.1
2018-Jul-11 04:22N 45°10' E 036°33'0 0.0
2018-Jul-11 04:00N 45°10' E 036°33'0 0.0
2018-Jul-11 03:26N 45°10' E 036°33'0 0.1
2018-Jul-11 02:14N 45°10' E 036°33'0 0.0
2018-Jul-11 01:08N 45°10' E 036°33'0 0.2
2018-Jul-11 00:59N 45°10' E 036°33'9 1.3
2018-Jul-10 17:40N 45°20' E 036°34'2 9.7
2018-Jul-10 17:30N 45°20' E 036°36'4 8.5
2018-Jul-10 17:00N 45°22' E 036°41'0 0.2
2018-Jul-10 16:28N 45°22' E 036°41'0 0.0
2018-Jul-10 15:58N 45°22' E 036°41'0 0.0
2018-Jul-10 15:28N 45°22' E 036°41'0 0.0
2018-Jul-10 14:58N 45°22' E 036°42'0 0.0
2018-Jul-10 14:28N 45°22' E 036°42'0 0.0
2018-Jul-10 13:58N 45°22' E 036°41'0 0.0
2018-Jul-10 13:28N 45°22' E 036°42'0 0.0
2018-Jul-10 12:58N 45°22' E 036°42'0 0.0
2018-Jul-10 12:28N 45°22' E 036°42'0 0.0
2018-Jul-10 11:58N 45°22' E 036°42'0 0.0
2018-Jul-10 11:28N 45°22' E 036°41'0 0.0
2018-Jul-10 10:58N 45°22' E 036°41'0 0.0
2018-Jul-10 10:25N 45°22' E 036°41'0 0.0
2018-Jul-10 09:58N 45°22' E 036°41'0 0.0
2018-Jul-10 09:28N 45°22' E 036°41'0 0.0
2018-Jul-10 08:58N 45°22' E 036°41'0 0.0
2018-Jul-10 08:25N 45°22' E 036°41'0 0.0
2018-Jul-10 07:58N 45°22' E 036°41'0 0.0
2018-Jul-10 07:28N 45°22' E 036°41'0 0.0
2018-Jul-10 06:58N 45°22' E 036°41'0 0.0
2018-Jul-10 06:28N 45°22' E 036°41'0 0.0
2018-Jul-10 05:58N 45°22' E 036°41'0 0.0
2018-Jul-10 05:28N 45°22' E 036°41'0 0.0
2018-Jul-10 04:58N 45°22' E 036°41'0 0.0
2018-Jul-10 04:28N 45°22' E 036°41'0 0.0
2018-Jul-10 03:58N 45°22' E 036°41'0 0.0
2018-Jul-10 03:28N 45°22' E 036°41'0 0.0
2018-Jul-10 02:58N 45°22' E 036°41'0 0.0
2018-Jul-10 02:28N 45°22' E 036°41'0 0.0
2018-Jul-10 01:58N 45°22' E 036°41'0 0.0
2018-Jul-10 01:28N 45°22' E 036°41'0 0.0
2018-Jul-10 00:55N 45°22' E 036°41'0 0.0
2018-Jul-10 00:28N 45°22' E 036°41'0 0.0
2018-Jul-09 23:55N 45°22' E 036°41'0 0.0
2018-Jul-09 23:28N 45°22' E 036°41'0 0.0
2018-Jul-09 22:58N 45°22' E 036°41'0 0.0
2018-Jul-09 22:28N 45°22' E 036°42'0 0.0
2018-Jul-09 21:58N 45°22' E 036°42'0 0.0
2018-Jul-09 21:28N 45°22' E 036°42'0 0.0
2018-Jul-09 20:58N 45°22' E 036°42'0 0.0
2018-Jul-09 20:28N 45°22' E 036°41'0 0.0
2018-Jul-09 19:58N 45°22' E 036°41'0 0.0
2018-Jul-09 19:25N 45°22' E 036°41'0 0.0
2018-Jul-09 18:58N 45°22' E 036°41'0 0.0
2018-Jul-09 18:28N 45°22' E 036°41'0 0.0
2018-Jul-09 17:58N 45°22' E 036°41'0 0.0
2018-Jul-09 17:28N 45°22' E 036°41'0 0.0
2018-Jul-09 16:55N 45°22' E 036°41'0 0.0
2018-Jul-09 16:22N 45°22' E 036°41'0 0.0
2018-Jul-09 15:58N 45°22' E 036°41'0 0.0
2018-Jul-09 15:28N 45°22' E 036°41'0 0.0
2018-Jul-09 14:55N 45°22' E 036°41'0 0.0
2018-Jul-09 14:28N 45°22' E 036°41'  
Track history (hours):
 
Tides and Currents Weather Stations Pressure Air Temp Water Temp Dewpoint Dewpoint Depression Visibility Wind Speed Wind Dir Waves Ship Positions

Ivan Poddubny

Last reported at 2018-Jul-19 14:00 UTC. Time now 2018-Jul-20 01:04 UTC.
Position N 45°10' E 036°33'.

Length 109 m; draft 4.6 m.

Type: Ship. MMSI: 273358190.

Date/timePositionNaut miles runAvg speedWind from/ knotsBaromVisibWave heightAir tempDewpointWater temp
2018-Jul-19 14:00N 45°10' E 036°33'0 0.2
2018-Jul-19 12:26N 45°10' E 036°32'0 0.0
2018-Jul-19 09:38N 45°10' E 036°32'0 0.0
2018-Jul-19 09:11N 45°10' E 036°32'0 0.0
2018-Jul-19 02:47N 45°10' E 036°32'0 0.0
2018-Jul-19 02:20N 45°10' E 036°32'0 0.0
2018-Jul-18 06:17N 45°10' E 036°32'0 0.0
2018-Jul-18 05:59N 45°10' E 036°32'0 0.0
2018-Jul-18 05:29N 45°10' E 036°32'0 0.0
2018-Jul-18 04:59N 45°10' E 036°32'0 0.0
2018-Jul-18 04:29N 45°10' E 036°32'0 0.0
2018-Jul-16 16:25N 45°10' E 036°32'0 0.0
2018-Jul-16 15:07N 45°10' E 036°32'0 0.0
2018-Jul-16 12:31N 45°10' E 036°32'0 0.1
2018-Jul-16 12:28N 45°10' E 036°32'0 0.0
2018-Jul-15 13:55N 45°10' E 036°32'0 0.1
2018-Jul-15 12:40N 45°10' E 036°32'0 0.0
2018-Jul-15 12:04N 45°10' E 036°32'0 0.1
2018-Jul-15 11:58N 45°10' E 036°32'0 0.0
2018-Jul-15 11:01N 45°10' E 036°32'0 0.1
2018-Jul-15 10:55N 45°10' E 036°32'0 0.0
2018-Jul-15 10:28N 45°10' E 036°32'0 0.0
2018-Jul-15 09:58N 45°10' E 036°32'0 0.0
2018-Jul-15 09:28N 45°10' E 036°32'0 0.0
2018-Jul-15 08:58N 45°10' E 036°32'0 0.0
2018-Jul-15 08:25N 45°10' E 036°32'0 0.0
2018-Jul-15 04:19N 45°10' E 036°32'55 4.2
2018-Jul-14 15:15N 44°35' E 037°32'3 9.8
2018-Jul-14 14:58N 44°35' E 037°36'9 8.9
2018-Jul-14 14:00N 44°37' E 037°48'4 8.5
2018-Jul-14 13:30N 44°41' E 037°51'1 1.4
2018-Jul-14 13:00N 44°41' E 037°52'0 0.1
2018-Jul-14 12:30N 44°41' E 037°52'0 0.0
2018-Jul-14 12:00N 44°41' E 037°52'0 0.2
2018-Jul-14 11:30N 44°41' E 037°52'0 0.1
2018-Jul-14 11:00N 44°41' E 037°52'0 0.2
2018-Jul-14 10:30N 44°41' E 037°52'0 0.2
2018-Jul-14 10:00N 44°41' E 037°52'0 0.1
2018-Jul-14 09:30N 44°41' E 037°52'0 0.0
2018-Jul-14 09:00N 44°41' E 037°52'0 0.0
2018-Jul-14 08:30N 44°41' E 037°52'0 0.0
2018-Jul-14 08:00N 44°41' E 037°52'0 0.1
2018-Jul-14 07:30N 44°41' E 037°52'0 0.1
2018-Jul-14 07:00N 44°41' E 037°52'0 0.1
2018-Jul-14 06:30N 44°41' E 037°52'0 0.0
2018-Jul-14 06:00N 44°41' E 037°52'0 0.2
2018-Jul-14 05:30N 44°41' E 037°52'1 2.8
2018-Jul-14 05:00N 44°40' E 037°51'2 4.7
2018-Jul-14 04:30N 44°38' E 037°52'2 3.3
2018-Jul-14 04:00N 44°36' E 037°51'3 6.5
2018-Jul-14 03:31N 44°35' E 037°47'3 6.5
2018-Jul-14 03:00N 44°35' E 037°42'3 6.4
2018-Jul-14 02:31N 44°35' E 037°38'3 6.6
2018-Jul-14 02:00N 44°35' E 037°33'3 6.3
2018-Jul-14 01:31N 44°37' E 037°29'58 8.0
2018-Jul-13 18:14N 45°20' E 036°34'210.1
2018-Jul-13 18:00N 45°21' E 036°37'3 6.6
2018-Jul-13 17:31N 45°22' E 036°41'1 1.0
2018-Jul-13 16:58N 45°22' E 036°42'0 0.0
2018-Jul-13 16:25N 45°22' E 036°42'0 0.0
2018-Jul-13 15:58N 45°22' E 036°42'0 0.0
2018-Jul-13 15:28N 45°22' E 036°42'0 0.0
2018-Jul-13 14:58N 45°22' E 036°42'0 0.0
2018-Jul-13 13:58N 45°22' E 036°42'0 0.0
2018-Jul-13 13:28N 45°22' E 036°42'0 0.0
2018-Jul-13 12:58N 45°22' E 036°42'0 0.0
2018-Jul-13 12:28N 45°22' E 036°42'0 0.0
2018-Jul-13 11:58N 45°22' E 036°42'0 0.0
2018-Jul-13 11:28N 45°22' E 036°42'0 0.0
2018-Jul-13 10:55N 45°22' E 036°42'0 0.0
2018-Jul-13 10:28N 45°22' E 036°42'0 0.0
2018-Jul-13 09:58N 45°22' E 036°42'0 0.0
2018-Jul-13 09:28N 45°22' E 036°42'0 0.0
2018-Jul-13 08:58N 45°22' E 036°42'0 0.0
2018-Jul-13 08:28N 45°22' E 036°42'0 0.0
2018-Jul-13 07:58N 45°22' E 036°42'0 0.0
2018-Jul-13 07:28N 45°22' E 036°42'0 0.0
2018-Jul-13 06:58N 45°22' E 036°42'0 0.0
2018-Jul-13 06:28N 45°22' E 036°42'0 0.0
2018-Jul-13 05:52N 45°22' E 036°42'0 0.0
2018-Jul-13 05:25N 45°22' E 036°42'0 0.0
2018-Jul-13 04:58N 45°22' E 036°42'0 0.0
2018-Jul-13 04:28N 45°22' E 036°42'0 0.1
2018-Jul-13 03:58N 45°22' E 036°42'0 0.0
2018-Jul-13 03:28N 45°22' E 036°42'0 0.2
2018-Jul-13 02:58N 45°22' E 036°42'0 0.1
2018-Jul-13 02:28N 45°22' E 036°42'0 0.0
2018-Jul-13 01:58N 45°22' E 036°42'0 0.0
2018-Jul-13 01:28N 45°22' E 036°42'0 0.0
2018-Jul-13 00:55N 45°22' E 036°42'0 0.1
2018-Jul-13 00:28N 45°22' E 036°42'0 0.1
2018-Jul-12 23:58N 45°22' E 036°42'0 0.0
2018-Jul-12 23:28N 45°22' E 036°42'0 0.0
2018-Jul-12 22:58N 45°22' E 036°42'0 0.0
2018-Jul-12 22:28N 45°22' E 036°42'0 0.0
2018-Jul-12 21:58N 45°22' E 036°42'0 0.1
2018-Jul-12 21:28N 45°22' E 036°42'1 1.9
2018-Jul-12 20:58N 45°22' E 036°40'4 8.4
2018-Jul-12 20:30N 45°20' E 036°35'10 2.1
2018-Jul-12 15:47N 45°11' E 036°29'2 2.2
2018-Jul-12 14:42N 45°09' E 036°31'2 5.2
2018-Jul-12 14:23N 45°08' E 036°33'0 0.4
2018-Jul-12 13:59N 45°08' E 036°33'0 0.0
2018-Jul-12 05:26N 45°08' E 036°33'0 0.0
2018-Jul-12 04:57N 45°08' E 036°33'0 0.0
2018-Jul-12 04:17N 45°08' E 036°33'0 0.0
2018-Jul-12 03:50N 45°08' E 036°33'0 0.1
2018-Jul-12 03:08N 45°08' E 036°32'0 0.3
2018-Jul-12 03:00N 45°08' E 036°33'2 2.8
2018-Jul-12 02:28N 45°10' E 036°32'1 0.7
2018-Jul-12 00:26N 45°11' E 036°33'0 0.0
2018-Jul-11 20:53N 45°11' E 036°33'0 0.0
2018-Jul-11 11:12N 45°11' E 036°33'1 0.1
2018-Jul-11 05:30N 45°10' E 036°33'0 0.1
2018-Jul-11 04:40N 45°10' E 036°33'0 0.1
2018-Jul-11 04:22N 45°10' E 036°33'0 0.0
2018-Jul-11 04:00N 45°10' E 036°33'0 0.0
2018-Jul-11 03:26N 45°10' E 036°33'0 0.1
2018-Jul-11 02:14N 45°10' E 036°33'0 0.0
2018-Jul-11 01:08N 45°10' E 036°33'0 0.2
2018-Jul-11 00:59N 45°10' E 036°33'9 1.3
2018-Jul-10 17:40N 45°20' E 036°34'2 9.7
2018-Jul-10 17:30N 45°20' E 036°36'4 8.5
2018-Jul-10 17:00N 45°22' E 036°41'0 0.2
2018-Jul-10 16:28N 45°22' E 036°41'0 0.0
2018-Jul-10 15:58N 45°22' E 036°41'0 0.0
2018-Jul-10 15:28N 45°22' E 036°41'0 0.0
2018-Jul-10 14:58N 45°22' E 036°42'0 0.0
2018-Jul-10 14:28N 45°22' E 036°42'0 0.0
2018-Jul-10 13:58N 45°22' E 036°41'0 0.0
2018-Jul-10 13:28N 45°22' E 036°42'0 0.0
2018-Jul-10 12:58N 45°22' E 036°42'0 0.0
2018-Jul-10 12:28N 45°22' E 036°42'0 0.0
2018-Jul-10 11:58N 45°22' E 036°42'0 0.0
2018-Jul-10 11:28N 45°22' E 036°41'0 0.0
2018-Jul-10 10:58N 45°22' E 036°41'0 0.0
2018-Jul-10 10:25N 45°22' E 036°41'0 0.0
2018-Jul-10 09:58N 45°22' E 036°41'0 0.0
2018-Jul-10 09:28N 45°22' E 036°41'0 0.0
2018-Jul-10 08:58N 45°22' E 036°41'0 0.0
2018-Jul-10 08:25N 45°22' E 036°41'0 0.0
2018-Jul-10 07:58N 45°22' E 036°41'0 0.0
2018-Jul-10 07:28N 45°22' E 036°41'0 0.0
2018-Jul-10 06:58N 45°22' E 036°41'0 0.0
2018-Jul-10 06:28N 45°22' E 036°41'0 0.0
2018-Jul-10 05:58N 45°22' E 036°41'0 0.0
2018-Jul-10 05:28N 45°22' E 036°41'0 0.0
2018-Jul-10 04:58N 45°22' E 036°41'0 0.0
2018-Jul-10 04:28N 45°22' E 036°41'0 0.0
2018-Jul-10 03:58N 45°22' E 036°41'0 0.0
2018-Jul-10 03:28N 45°22' E 036°41'0 0.0
2018-Jul-10 02:58N 45°22' E 036°41'0 0.0
2018-Jul-10 02:28N 45°22' E 036°41'0 0.0
2018-Jul-10 01:58N 45°22' E 036°41'0 0.0
2018-Jul-10 01:28N 45°22' E 036°41'0 0.0
2018-Jul-10 00:55N 45°22' E 036°41'0 0.0
2018-Jul-10 00:28N 45°22' E 036°41'0 0.0
2018-Jul-09 23:55N 45°22' E 036°41'0 0.0
2018-Jul-09 23:28N 45°22' E 036°41'0 0.0
2018-Jul-09 22:58N 45°22' E 036°41'0 0.0
2018-Jul-09 22:28N 45°22' E 036°42'0 0.0
2018-Jul-09 21:58N 45°22' E 036°42'0 0.0
2018-Jul-09 21:28N 45°22' E 036°42'0 0.0
2018-Jul-09 20:58N 45°22' E 036°42'0 0.0
2018-Jul-09 20:28N 45°22' E 036°41'0 0.0
2018-Jul-09 19:58N 45°22' E 036°41'0 0.0
2018-Jul-09 19:25N 45°22' E 036°41'0 0.0
2018-Jul-09 18:58N 45°22' E 036°41'0 0.0
2018-Jul-09 18:28N 45°22' E 036°41'0 0.0
2018-Jul-09 17:58N 45°22' E 036°41'0 0.0
2018-Jul-09 17:28N 45°22' E 036°41'0 0.0
2018-Jul-09 16:55N 45°22' E 036°41'0 0.0
2018-Jul-09 16:22N 45°22' E 036°41'0 0.0
2018-Jul-09 15:58N 45°22' E 036°41'0 0.0
2018-Jul-09 15:28N 45°22' E 036°41'0 0.0
2018-Jul-09 14:55N 45°22' E 036°41'0 0.0
2018-Jul-09 14:28N 45°22' E 036°41'  

Dump ship's entire track history